Terminal Aerodrome Forecast
Issued by NWS

Home | Current Version | Previous Version | Graphics & Text | Print | Product List | Glossary On
Versions: 1 2 3 4 5 6 7 8 9 10 11 12 13 14 15
880
FTUS42 KMHX 241009 AAB
TAFOAJ
TAF AMD
KOAJ 241009Z 2410/2506 VRB02KT 2SM BR SKC
      TEMPO 2410/2412 1/2SM FG
     FM241200 27007KT P6SM SCT150
     FM250100 21002KT P6SM SKC
      AMD LTD TO CLD VIS AND WIND=

USA.gov is the U.S. government's official web portal to all federal, state and local government web resources and services.